createdAt,value
2017-11-09T00:00:20.232Z,86.18
2017-11-09T00:02:51.222Z,86.90
2017-11-09T00:05:26.206Z,85.55
2017-11-09T00:07:56.734Z,91.80
2017-11-09T00:10:26.735Z,86.37
2017-11-09T00:12:56.403Z,82.05
2017-11-09T00:15:27.833Z,81.85
2017-11-09T00:17:58.261Z,81.10
2017-11-09T00:20:28.750Z,81.07
2017-11-09T00:22:58.416Z,76.03
2017-11-09T00:25:28.145Z,86.53
2017-11-09T00:27:57.829Z,80.25
2017-11-09T00:30:27.562Z,82.82
2017-11-09T00:32:57.249Z,77.62
2017-11-09T00:35:26.956Z,85.25
2017-11-09T00:37:56.665Z,78.60
2017-11-09T00:40:26.411Z,77.80
2017-11-09T00:42:56.091Z,79.35
2017-11-09T00:45:25.785Z,82.22
2017-11-09T00:47:55.458Z,80.00
2017-11-09T00:50:25.423Z,81.57
2017-11-09T00:52:55.093Z,80.40
2017-11-09T00:55:24.827Z,84.25
2017-11-09T00:57:55.310Z,78.62
2017-11-09T01:00:24.975Z,80.47
2017-11-09T01:02:55.397Z,83.80
2017-11-09T01:05:24.893Z,77.07
2017-11-09T01:07:54.656Z,81.30
2017-11-09T01:10:24.323Z,86.05
2017-11-09T01:12:54.056Z,73.85
2017-11-09T01:15:23.776Z,78.55
2017-11-09T01:17:53.486Z,81.35
2017-11-09T01:20:23.212Z,84.07
2017-11-09T01:22:52.884Z,81.35
2017-11-09T01:25:23.356Z,76.50
2017-11-09T01:27:53.041Z,84.90
2017-11-09T01:30:22.396Z,81.55
2017-11-09T01:32:52.073Z,88.00
2017-11-09T01:35:21.885Z,82.07
2017-11-09T01:37:51.579Z,85.60
2017-11-09T01:40:20.959Z,87.12
2017-11-09T01:42:51.425Z,83.30
2017-11-09T01:45:20.786Z,87.28
2017-11-09T01:47:51.319Z,82.43
2017-11-09T01:50:21.048Z,85.70
2017-11-09T01:52:50.793Z,79.55
2017-11-09T01:55:20.472Z,80.55
2017-11-09T01:57:49.982Z,89.95
2017-11-09T02:00:19.194Z,87.32
2017-11-09T02:02:48.316Z,80.00
2017-11-09T02:05:17.665Z,80.87
2017-11-09T02:07:47.408Z,83.95
2017-11-09T02:10:16.758Z,87.30
2017-11-09T02:12:47.139Z,81.43
2017-11-09T02:15:16.844Z,85.80
2017-11-09T02:17:45.973Z,82.22
2017-11-09T02:20:15.032Z,84.03
2017-11-09T02:22:44.029Z,81.78
2017-11-09T02:25:12.823Z,73.15
2017-11-09T02:27:41.670Z,76.90
2017-11-09T02:30:10.673Z,75.65
2017-11-09T02:32:39.608Z,77.18
2017-11-09T02:35:08.856Z,74.78
2017-11-09T02:37:39.305Z,78.28
2017-11-09T02:40:08.826Z,85.97
2017-11-09T02:42:37.830Z,76.18
2017-11-09T02:45:07.331Z,80.07
2017-11-09T02:47:37.061Z,79.37
2017-11-09T02:50:06.055Z,75.43
2017-11-09T02:52:35.744Z,83.22
2017-11-09T02:55:04.927Z,73.00
2017-11-09T02:57:34.261Z,75.95
2017-11-09T03:00:03.645Z,76.75
2017-11-09T03:02:32.910Z,79.10
2017-11-09T03:05:02.638Z,73.20
2017-11-09T03:07:32.171Z,79.35
2017-11-09T03:10:01.864Z,79.72
2017-11-09T03:12:31.623Z,74.32
2017-11-09T03:15:01.892Z,79.28
2017-11-09T03:17:31.709Z,77.50
2017-11-09T03:20:01.446Z,73.25
2017-11-09T03:22:31.149Z,75.12
2017-11-09T03:25:00.857Z,78.78
2017-11-09T03:27:30.535Z,77.85
2017-11-09T03:30:00.257Z,77.68
2017-11-09T03:32:29.957Z,73.37
2017-11-09T03:34:59.666Z,81.97
2017-11-09T03:37:29.416Z,76.00
2017-11-09T03:39:59.154Z,80.72
2017-11-09T03:42:29.592Z,78.45
2017-11-09T03:45:00.172Z,78.85
2017-11-09T03:47:29.904Z,75.70
2017-11-09T03:49:59.664Z,78.70
2017-11-09T03:52:29.340Z,79.60
2017-11-09T03:54:59.862Z,79.95
2017-11-09T03:57:29.536Z,74.72
2017-11-09T03:59:59.241Z,77.82
2017-11-09T04:02:28.984Z,82.72
2017-11-09T04:04:58.678Z,82.57
2017-11-09T04:07:28.395Z,76.95
2017-11-09T04:09:58.083Z,81.47
2017-11-09T04:12:27.851Z,79.57
2017-11-09T04:14:57.589Z,76.32
2017-11-09T04:17:27.067Z,85.10
2017-11-09T04:19:57.519Z,75.15
2017-11-09T04:22:27.259Z,76.60
2017-11-09T04:24:56.957Z,74.12
2017-11-09T04:27:26.667Z,75.32
2017-11-09T04:29:56.355Z,74.12
2017-11-09T04:32:26.111Z,76.47
2017-11-09T04:34:55.787Z,78.80
2017-11-09T04:37:25.550Z,74.93
2017-11-09T04:39:55.221Z,78.80
2017-11-09T04:42:25.068Z,79.55
2017-11-09T04:44:54.731Z,80.18
2017-11-09T04:47:24.498Z,83.32
2017-11-09T04:49:54.195Z,77.30
2017-11-09T04:52:24.051Z,75.43
2017-11-09T04:54:53.736Z,82.55
2017-11-09T04:57:23.460Z,82.62
2017-11-09T04:59:53.903Z,77.30
2017-11-09T05:02:23.673Z,77.45
2017-11-09T05:04:53.351Z,82.62
2017-11-09T05:07:23.085Z,82.85
2017-11-09T05:09:52.435Z,73.97
2017-11-09T05:12:27.915Z,85.32
2017-11-09T05:14:57.603Z,86.93
2017-11-09T05:17:27.315Z,82.45
2017-11-09T05:19:57.018Z,82.40
2017-11-09T05:22:26.722Z,84.53
2017-11-09T05:24:56.431Z,76.53
2017-11-09T05:27:26.177Z,85.00
2017-11-09T05:29:55.698Z,79.62
2017-11-09T05:32:25.415Z,77.35
2017-11-09T05:34:55.281Z,80.82
2017-11-09T05:37:25.178Z,78.00
2017-11-09T05:39:55.634Z,74.10
2017-11-09T05:42:25.417Z,79.82
2017-11-09T05:44:55.872Z,81.53
2017-11-09T05:47:25.618Z,80.93
2017-11-09T05:49:55.284Z,83.37
2017-11-09T05:52:25.038Z,88.62
2017-11-09T05:54:54.374Z,86.47
2017-11-09T05:57:24.662Z,87.43
2017-11-09T05:59:54.074Z,85.53
2017-11-09T06:02:23.422Z,85.62
2017-11-09T06:04:53.023Z,82.20
2017-11-09T06:07:23.474Z,84.90
2017-11-09T06:09:53.289Z,85.18
2017-11-09T06:12:22.797Z,89.72
2017-11-09T06:14:52.547Z,84.78
2017-11-09T06:17:22.230Z,87.40
2017-11-09T06:19:51.976Z,83.70
2017-11-09T06:22:22.418Z,81.82
2017-11-09T06:24:52.729Z,82.03
2017-11-09T06:27:22.418Z,79.20
2017-11-09T06:29:52.172Z,79.30
2017-11-09T06:32:21.866Z,88.28
2017-11-09T06:34:52.357Z,88.18
2017-11-09T06:37:22.164Z,83.15
2017-11-09T06:39:51.936Z,84.90
2017-11-09T06:42:21.616Z,82.72
2017-11-09T06:44:51.324Z,77.15
2017-11-09T06:47:21.321Z,80.43
2017-11-09T06:49:51.150Z,78.47
2017-11-09T06:52:20.865Z,80.30
2017-11-09T06:54:51.360Z,82.05
2017-11-09T06:57:21.076Z,81.80
2017-11-09T06:59:50.832Z,86.20
2017-11-09T07:02:20.526Z,87.45
2017-11-09T07:04:50.320Z,84.18
2017-11-09T07:07:20.785Z,84.22
2017-11-09T07:09:50.525Z,90.45
2017-11-09T07:12:20.256Z,80.20
2017-11-09T07:14:49.998Z,85.57
2017-11-09T07:17:19.687Z,79.97
2017-11-09T07:19:50.188Z,84.90
2017-11-09T07:22:19.867Z,83.80
2017-11-09T07:24:49.764Z,75.43
2017-11-09T07:27:20.355Z,81.18
2017-11-09T07:29:49.327Z,84.35
2017-11-09T07:32:18.682Z,84.53
2017-11-09T07:34:47.983Z,90.22
2017-11-09T07:37:18.493Z,85.15
2017-11-09T07:39:48.223Z,92.22
2017-11-09T07:42:18.060Z,93.05
2017-11-09T07:44:47.738Z,86.60
2017-11-09T07:47:18.247Z,98.60
2017-11-09T07:49:47.927Z,80.20
2017-11-09T07:52:17.668Z,88.97
2017-11-09T07:54:47.712Z,93.37
2017-11-09T07:57:18.211Z,76.65
2017-11-09T07:59:47.908Z,86.53
2017-11-09T08:02:17.621Z,83.72
2017-11-09T08:04:47.576Z,90.55
2017-11-09T08:07:17.307Z,86.60
2017-11-09T08:09:46.752Z,93.12
2017-11-09T08:12:16.534Z,91.07
2017-11-09T08:14:46.260Z,95.70
2017-11-09T08:17:15.974Z,89.57
2017-11-09T08:19:45.477Z,88.35
2017-11-09T08:22:15.287Z,87.20
2017-11-09T08:24:45.695Z,251.60
2017-11-09T08:27:17.550Z,93.75
2017-11-09T08:29:50.843Z,92.47
2017-11-09T08:32:21.493Z,82.80
2017-11-09T08:34:52.464Z,75.93
2017-11-09T08:37:22.471Z,89.97
2017-11-09T08:39:52.177Z,78.78
2017-11-09T08:42:22.686Z,79.95
2017-11-09T08:44:52.479Z,81.63
2017-11-09T08:47:22.404Z,87.80
2017-11-09T08:49:52.101Z,86.78
2017-11-09T08:52:21.298Z,86.43
2017-11-09T08:54:51.143Z,80.00
2017-11-09T08:57:21.636Z,87.60
2017-11-09T08:59:51.503Z,78.93
2017-11-09T09:02:21.994Z,86.25
2017-11-09T09:04:51.747Z,82.70
2017-11-09T09:07:22.194Z,89.82
2017-11-09T09:09:52.788Z,80.38
2017-11-09T09:12:22.456Z,72.93
2017-11-09T09:14:52.758Z,72.90
2017-11-09T09:17:22.263Z,77.57
2017-11-09T09:19:51.797Z,72.43
2017-11-09T09:22:22.248Z,78.80
2017-11-09T09:24:51.985Z,78.65
2017-11-09T09:27:36.161Z,85.55
2017-11-09T09:30:17.702Z,78.32
2017-11-09T09:33:06.121Z,82.25
2017-11-09T09:35:42.427Z,86.35
2017-11-09T09:38:29.100Z,83.53
2017-11-09T09:41:01.438Z,86.72
2017-11-09T09:43:31.245Z,78.28
2017-11-09T09:46:00.849Z,86.40
2017-11-09T09:48:32.245Z,81.95
2017-11-09T09:51:02.570Z,78.18
2017-11-09T09:53:32.350Z,92.72
2017-11-09T09:56:02.812Z,72.85
2017-11-09T09:58:33.291Z,84.85
2017-11-09T10:01:02.516Z,83.37
2017-11-09T10:03:32.279Z,82.03
2017-11-09T10:06:02.010Z,91.40
2017-11-09T10:08:32.831Z,84.10
2017-11-09T10:11:03.385Z,92.37
2017-11-09T10:13:33.153Z,85.57
2017-11-09T10:16:03.864Z,72.72
2017-11-09T10:18:33.635Z,72.75
2017-11-09T10:21:03.511Z,75.85
2017-11-09T10:23:33.301Z,74.70
2017-11-09T10:26:04.564Z,68.40
2017-11-09T10:28:34.805Z,76.70
2017-11-09T10:31:06.139Z,74.37
2017-11-09T10:33:35.887Z,75.15
2017-11-09T10:36:06.045Z,72.65
2017-11-09T10:38:37.250Z,80.72
2017-11-09T10:41:07.541Z,75.07
2017-11-09T10:43:37.310Z,78.57
2017-11-09T10:46:06.698Z,82.50
2017-11-09T10:48:36.640Z,71.68
2017-11-09T10:51:06.038Z,78.72
2017-11-09T10:53:35.775Z,85.55
2017-11-09T10:56:05.640Z,83.18
2017-11-09T10:58:38.724Z,80.57
2017-11-09T11:01:08.888Z,90.32
2017-11-09T11:03:38.692Z,79.10
2017-11-09T11:06:08.055Z,92.12
2017-11-09T11:08:37.441Z,87.95
2017-11-09T11:11:07.253Z,81.57
2017-11-09T11:13:37.811Z,80.82
2017-11-09T11:16:07.519Z,96.25
2017-11-09T11:18:37.220Z,91.95
2017-11-09T11:21:07.696Z,86.20
2017-11-09T11:23:37.449Z,94.97
2017-11-09T11:26:07.139Z,93.80
2017-11-09T11:28:36.873Z,88.30
2017-11-09T11:31:06.452Z,90.72
2017-11-09T11:33:35.792Z,93.25
2017-11-09T11:36:05.179Z,90.85
2017-11-09T11:38:34.907Z,89.28
2017-11-09T11:41:04.604Z,84.43
2017-11-09T11:43:35.077Z,83.32
2017-11-09T11:46:05.539Z,84.85
2017-11-09T11:48:35.542Z,82.37
2017-11-09T11:51:06.049Z,88.03
2017-11-09T11:53:35.835Z,86.47
2017-11-09T11:56:05.600Z,86.55
2017-11-09T11:58:36.263Z,79.93
2017-11-09T12:01:05.932Z,72.65
2017-11-09T12:03:37.541Z,79.28
2017-11-09T12:06:07.276Z,79.82
2017-11-09T12:08:37.024Z,80.05
2017-11-09T12:11:07.545Z,85.38
2017-11-09T12:13:37.073Z,79.32
2017-11-09T12:16:06.594Z,76.15
2017-11-09T12:18:36.312Z,78.15
2017-11-09T12:21:06.262Z,78.95
2017-11-09T12:23:36.675Z,85.05
2017-11-09T12:26:06.435Z,85.82
2017-11-09T12:28:36.257Z,88.70
2017-11-09T12:31:06.783Z,101.50
2017-11-09T12:33:36.511Z,86.70
2017-11-09T12:36:06.454Z,82.60
2017-11-09T12:38:36.192Z,85.40
2017-11-09T12:41:05.759Z,85.57
2017-11-09T12:43:35.439Z,83.53
2017-11-09T12:46:04.915Z,88.87
2017-11-09T12:48:34.380Z,78.45
2017-11-09T12:51:04.666Z,78.78
2017-11-09T12:53:34.380Z,87.90
2017-11-09T12:56:04.853Z,92.25
2017-11-09T12:58:34.412Z,93.20
2017-11-09T13:01:04.160Z,88.10
2017-11-09T13:03:33.971Z,83.12
2017-11-09T13:06:03.903Z,88.03
2017-11-09T13:08:34.121Z,88.78
2017-11-09T13:11:03.662Z,89.65
2017-11-09T13:13:34.132Z,89.10
2017-11-09T13:16:03.668Z,78.60
2017-11-09T13:18:33.350Z,90.97
2017-11-09T13:21:03.642Z,84.40
2017-11-09T13:23:33.363Z,94.13
2017-11-09T13:26:03.819Z,91.90
2017-11-09T13:28:33.635Z,85.05
2017-11-09T13:31:03.337Z,95.72
2017-11-09T13:33:33.980Z,81.87
2017-11-09T13:36:04.084Z,86.85
2017-11-09T13:38:34.384Z,94.28
2017-11-09T13:41:04.066Z,92.00
2017-11-09T13:43:33.849Z,104.75
2017-11-09T13:46:03.539Z,91.72
2017-11-09T13:48:34.056Z,93.95
2017-11-09T13:51:04.529Z,86.45
2017-11-09T13:53:34.329Z,97.00
2017-11-09T13:56:04.805Z,99.80
2017-11-09T13:58:35.299Z,98.85
2017-11-09T14:01:04.635Z,104.65
2017-11-09T14:03:34.380Z,106.10
2017-11-09T14:06:04.084Z,113.28
2017-11-09T14:08:33.852Z,100.20
2017-11-09T14:11:03.549Z,111.07
2017-11-09T14:13:33.297Z,104.55
2017-11-09T14:16:03.977Z,104.72
2017-11-09T14:18:33.872Z,93.87
2017-11-09T14:21:03.795Z,96.05
2017-11-09T14:23:35.124Z,99.72
2017-11-09T14:26:04.890Z,99.60
2017-11-09T14:28:37.547Z,97.05
2017-11-09T14:31:06.891Z,91.97
2017-11-09T14:33:36.654Z,97.12
2017-11-09T14:36:06.234Z,82.40
2017-11-09T14:38:36.756Z,97.07
2017-11-09T14:41:06.432Z,99.10
2017-11-09T14:43:36.174Z,105.20
2017-11-09T14:46:05.868Z,97.05
2017-11-09T14:48:35.674Z,99.62
2017-11-09T14:51:06.138Z,109.00
2017-11-09T14:53:35.883Z,98.82
2017-11-09T14:56:05.550Z,89.72
2017-11-09T14:58:35.288Z,97.80
2017-11-09T15:01:04.967Z,84.18
2017-11-09T15:03:35.449Z,108.00
2017-11-09T15:06:05.191Z,109.35
2017-11-09T15:08:34.693Z,88.10
2017-11-09T15:11:04.231Z,112.72
2017-11-09T15:13:34.728Z,104.20
2017-11-09T15:16:05.381Z,114.18
2017-11-09T15:18:35.833Z,107.57
2017-11-09T15:21:05.569Z,111.43
2017-11-09T15:23:35.155Z,116.43
2017-11-09T15:26:04.740Z,113.68
2017-11-09T15:28:34.337Z,111.45
2017-11-09T15:31:04.170Z,113.22
2017-11-09T15:33:33.656Z,107.82
2017-11-09T15:36:09.486Z,106.75
2017-11-09T15:38:39.300Z,110.65
2017-11-09T15:41:09.027Z,107.60
2017-11-09T15:43:38.737Z,107.30
2017-11-09T15:46:08.447Z,117.40
2017-11-09T15:48:38.165Z,125.68
2017-11-09T15:51:08.763Z,117.75
2017-11-09T15:53:38.444Z,130.25
2017-11-09T15:56:08.285Z,126.65
2017-11-09T15:58:37.984Z,123.93
2017-11-09T16:01:07.719Z,122.10
2017-11-09T16:03:37.471Z,128.38
2017-11-09T16:06:07.436Z,124.28
2017-11-09T16:08:37.214Z,127.22
2017-11-09T16:11:06.911Z,130.05
2017-11-09T16:13:36.627Z,125.65
2017-11-09T16:16:06.377Z,126.57
2017-11-09T16:18:37.801Z,120.57
2017-11-09T16:21:07.505Z,134.18
2017-11-09T16:23:37.400Z,112.47
2017-11-09T16:26:07.102Z,111.35
2017-11-09T16:28:36.839Z,107.57
2017-11-09T16:31:06.939Z,125.45
2017-11-09T16:33:36.722Z,118.93
2017-11-09T16:36:06.413Z,113.00
2017-11-09T16:38:36.142Z,122.90
2017-11-09T16:41:05.885Z,119.47
2017-11-09T16:43:35.593Z,111.30
2017-11-09T16:46:05.565Z,101.03
2017-11-09T16:48:35.256Z,115.03
2017-11-09T16:51:05.029Z,103.97
2017-11-09T16:53:35.495Z,104.80
2017-11-09T16:56:05.237Z,104.00
2017-11-09T16:58:34.995Z,110.18
2017-11-09T17:01:05.440Z,105.78
2017-11-09T17:03:35.182Z,112.00
2017-11-09T17:06:04.526Z,111.88
2017-11-09T17:08:34.243Z,106.07
2017-11-09T17:11:04.371Z,111.62
2017-11-09T17:13:34.073Z,122.68
2017-11-09T17:16:03.891Z,113.57
2017-11-09T17:18:34.403Z,113.60
2017-11-09T17:21:04.124Z,121.68
2017-11-09T17:23:34.757Z,108.07
2017-11-09T17:26:04.436Z,109.63
2017-11-09T17:28:34.280Z,112.75
2017-11-09T17:31:04.401Z,114.60
2017-11-09T17:33:34.895Z,119.10
2017-11-09T17:36:04.613Z,132.98
2017-11-09T17:38:34.437Z,129.15
2017-11-09T17:41:04.165Z,126.20
2017-11-09T17:43:34.186Z,114.70
2017-11-09T17:46:04.432Z,128.90
2017-11-09T17:48:34.142Z,120.53
2017-11-09T17:51:04.638Z,126.10
2017-11-09T17:53:34.349Z,124.35
2017-11-09T17:56:05.242Z,118.32
2017-11-09T17:58:37.389Z,128.50
2017-11-09T18:01:07.154Z,117.57
2017-11-09T18:03:36.851Z,130.37
2017-11-09T18:06:06.729Z,124.95
2017-11-09T18:08:36.416Z,132.90
2017-11-09T18:11:06.912Z,133.02
2017-11-09T18:13:36.635Z,128.12
2017-11-09T18:16:06.375Z,120.15
2017-11-09T18:18:36.827Z,132.05
2017-11-09T18:21:06.719Z,144.40
2017-11-09T18:23:36.425Z,134.27
2017-11-09T18:26:06.280Z,135.27
2017-11-09T18:28:36.778Z,137.57
2017-11-09T18:31:06.765Z,140.18
2017-11-09T18:33:37.480Z,137.85
2017-11-09T18:36:08.514Z,136.62
2017-11-09T18:38:39.176Z,130.85
2017-11-09T18:41:09.116Z,142.07
2017-11-09T18:43:38.938Z,135.10
2017-11-09T18:46:08.675Z,135.32
2017-11-09T18:48:38.439Z,132.85
2017-11-09T18:51:08.165Z,135.60
2017-11-09T18:53:37.871Z,138.15
2017-11-09T18:56:07.723Z,142.73
2017-11-09T18:58:37.480Z,149.77
2017-11-09T19:01:07.991Z,133.40
2017-11-09T19:03:37.884Z,125.18
2017-11-09T19:06:08.814Z,133.23
2017-11-09T19:08:38.603Z,142.45
2017-11-09T19:11:08.474Z,137.25
2017-11-09T19:13:39.402Z,134.73
2017-11-09T19:16:09.131Z,141.23
2017-11-09T19:18:38.940Z,132.57
2017-11-09T19:21:09.449Z,135.07
2017-11-09T19:23:39.151Z,136.95
2017-11-09T19:26:08.869Z,140.57
2017-11-09T19:28:38.596Z,127.82
2017-11-09T19:31:08.516Z,133.43
2017-11-09T19:33:38.322Z,137.73
2017-11-09T19:36:07.826Z,121.68
2017-11-09T19:38:38.421Z,141.57
2017-11-09T19:41:08.166Z,136.73
2017-11-09T19:43:37.702Z,130.68
2017-11-09T19:46:07.398Z,144.30
2017-11-09T19:48:37.121Z,135.60
2017-11-09T19:51:06.850Z,132.37
2017-11-09T19:53:36.531Z,120.72
2017-11-09T19:56:06.270Z,148.90
2017-11-09T19:58:36.008Z,141.57
2017-11-09T20:01:05.991Z,135.77
2017-11-09T20:03:35.737Z,123.57
2017-11-09T20:06:05.417Z,156.20
2017-11-09T20:08:35.135Z,119.82
2017-11-09T20:11:04.830Z,143.98
2017-11-09T20:13:34.570Z,136.50
2017-11-09T20:16:04.300Z,134.40
2017-11-09T20:18:34.045Z,137.23
2017-11-09T20:21:03.749Z,151.90
2017-11-09T20:23:33.503Z,136.15
2017-11-09T20:26:03.191Z,155.20
2017-11-09T20:28:32.924Z,137.02
2017-11-09T20:31:02.624Z,144.35
2017-11-09T20:33:34.108Z,135.30
2017-11-09T20:36:03.809Z,139.40
2017-11-09T20:38:33.567Z,142.60
2017-11-09T20:41:03.633Z,131.30
2017-11-09T20:43:33.259Z,128.35
2017-11-09T20:46:02.785Z,156.48
2017-11-09T20:48:32.387Z,126.22
2017-11-09T20:51:02.878Z,140.52
2017-11-09T20:53:32.664Z,133.63
2017-11-09T20:56:02.423Z,135.70
2017-11-09T20:58:36.629Z,157.20
2017-11-09T21:01:06.303Z,126.00
2017-11-09T21:03:36.069Z,142.93
2017-11-09T21:06:05.436Z,139.07
2017-11-09T21:08:35.179Z,124.57
2017-11-09T21:11:05.656Z,126.03
2017-11-09T21:13:35.486Z,138.60
2017-11-09T21:16:05.183Z,132.57
2017-11-09T21:18:34.921Z,130.90
2017-11-09T21:21:05.439Z,134.50
2017-11-09T21:23:35.410Z,140.45
2017-11-09T21:26:05.915Z,120.37
2017-11-09T21:28:35.621Z,131.45
2017-11-09T21:31:05.408Z,125.22
2017-11-09T21:33:35.996Z,123.03
2017-11-09T21:36:05.875Z,124.22
2017-11-09T21:38:36.717Z,132.50
2017-11-09T21:41:06.430Z,131.12
2017-11-09T21:43:36.272Z,123.03
2017-11-09T21:46:06.011Z,120.30
2017-11-09T21:48:35.742Z,130.48
2017-11-09T21:51:11.970Z,115.93
2017-11-09T21:53:41.699Z,117.60
2017-11-09T21:56:11.387Z,111.05
2017-11-09T21:58:41.104Z,123.25
2017-11-09T22:01:10.795Z,122.10
2017-11-09T22:03:40.514Z,116.43
2017-11-09T22:06:09.907Z,118.75
2017-11-09T22:08:39.461Z,107.70
2017-11-09T22:11:09.206Z,116.82
2017-11-09T22:13:39.655Z,111.85
2017-11-09T22:16:09.405Z,117.00
2017-11-09T22:18:38.735Z,104.63
2017-11-09T22:21:08.552Z,119.50
2017-11-09T22:23:38.413Z,113.70
2017-11-09T22:26:08.122Z,117.80
2017-11-09T22:28:37.858Z,108.55
2017-11-09T22:31:07.553Z,118.05
2017-11-09T22:33:37.284Z,122.57
2017-11-09T22:36:06.950Z,106.95
2017-11-09T22:38:37.439Z,111.95
2017-11-09T22:41:07.130Z,103.90
2017-11-09T22:43:36.853Z,102.07
2017-11-09T22:46:06.534Z,102.18
2017-11-09T22:48:36.277Z,107.97
2017-11-09T22:51:05.972Z,104.32
2017-11-09T22:53:35.692Z,97.30
2017-11-09T22:56:05.383Z,107.65
2017-11-09T22:58:35.117Z,97.62
2017-11-09T23:01:04.622Z,101.80
2017-11-09T23:03:34.613Z,91.35
2017-11-09T23:06:04.324Z,99.72
2017-11-09T23:08:34.068Z,101.20
2017-11-09T23:11:03.591Z,92.78
2017-11-09T23:13:33.145Z,101.38
2017-11-09T23:16:02.856Z,103.65
2017-11-09T23:18:32.607Z,95.15
2017-11-09T23:21:02.144Z,103.87
2017-11-09T23:23:31.904Z,106.37
2017-11-09T23:26:01.643Z,92.57
2017-11-09T23:28:31.435Z,100.62
2017-11-09T23:31:01.188Z,96.37
2017-11-09T23:33:30.996Z,100.78
2017-11-09T23:36:00.716Z,98.07
2017-11-09T23:38:30.472Z,87.68
2017-11-09T23:41:00.170Z,80.32
2017-11-09T23:43:30.018Z,87.65
2017-11-09T23:46:00.498Z,90.90
2017-11-09T23:48:30.256Z,87.57
2017-11-09T23:51:00.742Z,93.05
2017-11-09T23:53:30.349Z,91.47
2017-11-09T23:56:00.048Z,86.82
2017-11-09T23:58:29.792Z,82.25
